sensor_id;sensor_type;location;lat;lon;timestamp;P1;durP1;ratioP1;P2;durP2;ratioP2
55312;SDS011;46892;45.668;11.756;2022-12-07T00:01:29;29.13;;;21.47;;
55312;SDS011;46892;45.668;11.756;2022-12-07T00:03:57;31.13;;;21.57;;
55312;SDS011;46892;45.668;11.756;2022-12-07T00:06:29;28.37;;;20.60;;
55312;SDS011;46892;45.668;11.756;2022-12-07T00:08:56;28.50;;;21.00;;
55312;SDS011;46892;45.668;11.756;2022-12-07T00:11:22;27.20;;;20.67;;
55312;SDS011;46892;45.668;11.756;2022-12-07T00:13:52;29.43;;;22.07;;
55312;SDS011;46892;45.668;11.756;2022-12-07T00:18:46;29.30;;;20.60;;
55312;SDS011;46892;45.668;11.756;2022-12-07T00:21:12;33.17;;;23.20;;
55312;SDS011;46892;45.668;11.756;2022-12-07T00:23:50;29.97;;;22.97;;
55312;SDS011;46892;45.668;11.756;2022-12-07T00:26:17;29.97;;;22.07;;
55312;SDS011;46892;45.668;11.756;2022-12-07T00:28:51;31.80;;;22.77;;
55312;SDS011;46892;45.668;11.756;2022-12-07T00:31:19;30.07;;;22.63;;
55312;SDS011;46892;45.668;11.756;2022-12-07T00:33:46;28.77;;;22.30;;
55312;SDS011;46892;45.668;11.756;2022-12-07T00:36:13;32.00;;;22.23;;
55312;SDS011;46892;45.668;11.756;2022-12-07T00:38:40;29.43;;;20.00;;
55312;SDS011;46892;45.668;11.756;2022-12-07T00:41:08;24.57;;;18.77;;
55312;SDS011;46892;45.668;11.756;2022-12-07T00:43:40;24.10;;;18.43;;
55312;SDS011;46892;45.668;11.756;2022-12-07T00:46:06;26.23;;;18.70;;
55312;SDS011;46892;45.668;11.756;2022-12-07T00:48:32;26.00;;;19.83;;
55312;SDS011;46892;45.668;11.756;2022-12-07T00:50:58;24.30;;;18.43;;
55312;SDS011;46892;45.668;11.756;2022-12-07T00:53:24;24.83;;;19.43;;
55312;SDS011;46892;45.668;11.756;2022-12-07T00:55:50;23.10;;;18.30;;
55312;SDS011;46892;45.668;11.756;2022-12-07T00:58:17;27.87;;;18.57;;
55312;SDS011;46892;45.668;11.756;2022-12-07T01:00:43;24.07;;;18.27;;
55312;SDS011;46892;45.668;11.756;2022-12-07T01:03:11;25.07;;;19.27;;
55312;SDS011;46892;45.668;11.756;2022-12-07T01:05:38;23.83;;;18.90;;
55312;SDS011;46892;45.668;11.756;2022-12-07T01:08:05;22.90;;;18.63;;
55312;SDS011;46892;45.668;11.756;2022-12-07T01:10:31;24.17;;;18.53;;
55312;SDS011;46892;45.668;11.756;2022-12-07T01:12:57;24.00;;;17.80;;
55312;SDS011;46892;45.668;11.756;2022-12-07T01:15:24;24.83;;;18.87;;
55312;SDS011;46892;45.668;11.756;2022-12-07T01:17:50;22.40;;;17.90;;
55312;SDS011;46892;45.668;11.756;2022-12-07T01:20:16;24.17;;;19.10;;
55312;SDS011;46892;45.668;11.756;2022-12-07T01:22:42;25.90;;;18.93;;
55312;SDS011;46892;45.668;11.756;2022-12-07T01:25:09;24.40;;;17.83;;
55312;SDS011;46892;45.668;11.756;2022-12-07T01:27:36;20.97;;;16.90;;
55312;SDS011;46892;45.668;11.756;2022-12-07T01:30:03;24.30;;;19.17;;
55312;SDS011;46892;45.668;11.756;2022-12-07T01:32:31;24.33;;;18.17;;
55312;SDS011;46892;45.668;11.756;2022-12-07T01:34:58;22.57;;;17.73;;
55312;SDS011;46892;45.668;11.756;2022-12-07T01:37:23;26.17;;;19.70;;
55312;SDS011;46892;45.668;11.756;2022-12-07T01:39:50;24.03;;;19.00;;
55312;SDS011;46892;45.668;11.756;2022-12-07T01:42:16;39.47;;;19.40;;
55312;SDS011;46892;45.668;11.756;2022-12-07T01:47:42;27.30;;;20.10;;
55312;SDS011;46892;45.668;11.756;2022-12-07T01:50:15;27.10;;;20.50;;
55312;SDS011;46892;45.668;11.756;2022-12-07T01:52:41;26.97;;;19.93;;
55312;SDS011;46892;45.668;11.756;2022-12-07T01:55:09;23.40;;;17.87;;
55312;SDS011;46892;45.668;11.756;2022-12-07T01:57:39;23.10;;;17.97;;
55312;SDS011;46892;45.668;11.756;2022-12-07T02:00:08;22.40;;;17.67;;
55312;SDS011;46892;45.668;11.756;2022-12-07T02:02:43;25.80;;;19.07;;
55312;SDS011;46892;45.668;11.756;2022-12-07T02:05:25;24.03;;;18.20;;
55312;SDS011;46892;45.668;11.756;2022-12-07T02:07:52;20.73;;;16.93;;
55312;SDS011;46892;45.668;11.756;2022-12-07T02:10:21;21.23;;;16.63;;
55312;SDS011;46892;45.668;11.756;2022-12-07T02:13:00;22.77;;;17.30;;
55312;SDS011;46892;45.668;11.756;2022-12-07T02:18:35;22.87;;;16.40;;
55312;SDS011;46892;45.668;11.756;2022-12-07T02:21:08;20.30;;;15.57;;
55312;SDS011;46892;45.668;11.756;2022-12-07T02:29:21;17.73;;;14.87;;
55312;SDS011;46892;45.668;11.756;2022-12-07T02:37:21;20.13;;;15.83;;
55312;SDS011;46892;45.668;11.756;2022-12-07T02:40:16;19.97;;;15.43;;
55312;SDS011;46892;45.668;11.756;2022-12-07T02:45:49;21.07;;;16.13;;
55312;SDS011;46892;45.668;11.756;2022-12-07T02:48:17;20.80;;;15.37;;
55312;SDS011;46892;45.668;11.756;2022-12-07T02:50:48;20.30;;;15.07;;
55312;SDS011;46892;45.668;11.756;2022-12-07T02:56:23;21.73;;;15.63;;
55312;SDS011;46892;45.668;11.756;2022-12-07T03:04:42;18.70;;;14.00;;
55312;SDS011;46892;45.668;11.756;2022-12-07T03:12:37;22.37;;;16.97;;
55312;SDS011;46892;45.668;11.756;2022-12-07T03:15:11;23.00;;;17.03;;
55312;SDS011;46892;45.668;11.756;2022-12-07T03:18:08;25.63;;;17.40;;
55312;SDS011;46892;45.668;11.756;2022-12-07T03:20:37;26.10;;;17.90;;
55312;SDS011;46892;45.668;11.756;2022-12-07T03:23:06;23.13;;;17.30;;
55312;SDS011;46892;45.668;11.756;2022-12-07T03:25:35;25.40;;;18.77;;
55312;SDS011;46892;45.668;11.756;2022-12-07T03:28:06;24.37;;;17.70;;
55312;SDS011;46892;45.668;11.756;2022-12-07T03:30:42;25.83;;;17.63;;
55312;SDS011;46892;45.668;11.756;2022-12-07T03:33:20;25.10;;;17.93;;
55312;SDS011;46892;45.668;11.756;2022-12-07T03:35:54;26.60;;;17.50;;
55312;SDS011;46892;45.668;11.756;2022-12-07T03:38:29;24.57;;;17.63;;
55312;SDS011;46892;45.668;11.756;2022-12-07T03:41:05;24.77;;;17.10;;
55312;SDS011;46892;45.668;11.756;2022-12-07T03:43:39;23.57;;;17.07;;
55312;SDS011;46892;45.668;11.756;2022-12-07T03:46:20;23.57;;;18.33;;
55312;SDS011;46892;45.668;11.756;2022-12-07T03:49:12;30.27;;;20.43;;
55312;SDS011;46892;45.668;11.756;2022-12-07T03:51:55;27.80;;;18.40;;
55312;SDS011;46892;45.668;11.756;2022-12-07T03:54:44;22.50;;;16.73;;
55312;SDS011;46892;45.668;11.756;2022-12-07T03:57:13;26.53;;;17.90;;
55312;SDS011;46892;45.668;11.756;2022-12-07T03:59:40;24.53;;;16.13;;
55312;SDS011;46892;45.668;11.756;2022-12-07T04:02:07;25.47;;;16.50;;
55312;SDS011;46892;45.668;11.756;2022-12-07T04:04:37;22.20;;;15.90;;
55312;SDS011;46892;45.668;11.756;2022-12-07T04:07:04;23.77;;;16.30;;
55312;SDS011;46892;45.668;11.756;2022-12-07T04:09:29;21.70;;;14.43;;
55312;SDS011;46892;45.668;11.756;2022-12-07T04:11:55;20.73;;;14.33;;
55312;SDS011;46892;45.668;11.756;2022-12-07T04:14:21;22.23;;;14.60;;
55312;SDS011;46892;45.668;11.756;2022-12-07T04:16:50;20.63;;;14.47;;
55312;SDS011;46892;45.668;11.756;2022-12-07T04:19:19;20.27;;;14.27;;
55312;SDS011;46892;45.668;11.756;2022-12-07T04:21:46;18.27;;;12.93;;
55312;SDS011;46892;45.668;11.756;2022-12-07T04:24:13;21.43;;;13.93;;
55312;SDS011;46892;45.668;11.756;2022-12-07T04:26:40;19.80;;;13.80;;
55312;SDS011;46892;45.668;11.756;2022-12-07T04:29:06;20.50;;;13.67;;
55312;SDS011;46892;45.668;11.756;2022-12-07T04:31:32;18.27;;;13.03;;
55312;SDS011;46892;45.668;11.756;2022-12-07T04:33:58;16.20;;;12.07;;
55312;SDS011;46892;45.668;11.756;2022-12-07T04:36:24;17.87;;;12.03;;
55312;SDS011;46892;45.668;11.756;2022-12-07T04:38:49;16.60;;;10.23;;
55312;SDS011;46892;45.668;11.756;2022-12-07T04:41:17;16.73;;;11.87;;
55312;SDS011;46892;45.668;11.756;2022-12-07T04:43:43;16.50;;;11.80;;
55312;SDS011;46892;45.668;11.756;2022-12-07T04:46:08;18.37;;;13.17;;
55312;SDS011;46892;45.668;11.756;2022-12-07T04:48:34;19.07;;;11.77;;
55312;SDS011;46892;45.668;11.756;2022-12-07T04:51:00;16.03;;;11.60;;
55312;SDS011;46892;45.668;11.756;2022-12-07T04:53:27;15.50;;;11.50;;
55312;SDS011;46892;45.668;11.756;2022-12-07T04:55:52;15.70;;;10.30;;
55312;SDS011;46892;45.668;11.756;2022-12-07T04:58:18;16.83;;;10.40;;
55312;SDS011;46892;45.668;11.756;2022-12-07T05:00:44;16.27;;;11.00;;
55312;SDS011;46892;45.668;11.756;2022-12-07T05:03:09;15.13;;;10.63;;
55312;SDS011;46892;45.668;11.756;2022-12-07T05:05:35;15.50;;;10.90;;
55312;SDS011;46892;45.668;11.756;2022-12-07T05:08:00;18.93;;;10.13;;
55312;SDS011;46892;45.668;11.756;2022-12-07T05:10:26;17.67;;;10.80;;
55312;SDS011;46892;45.668;11.756;2022-12-07T05:12:52;15.70;;;10.80;;
55312;SDS011;46892;45.668;11.756;2022-12-07T05:15:17;15.27;;;11.07;;
55312;SDS011;46892;45.668;11.756;2022-12-07T05:17:43;16.30;;;10.27;;
55312;SDS011;46892;45.668;11.756;2022-12-07T05:20:09;18.30;;;11.17;;
55312;SDS011;46892;45.668;11.756;2022-12-07T05:22:35;15.73;;;10.63;;
55312;SDS011;46892;45.668;11.756;2022-12-07T05:25:01;17.10;;;10.93;;
55312;SDS011;46892;45.668;11.756;2022-12-07T05:27:26;14.63;;;10.73;;
55312;SDS011;46892;45.668;11.756;2022-12-07T05:29:52;14.00;;;9.90;;
55312;SDS011;46892;45.668;11.756;2022-12-07T05:32:18;15.20;;;10.57;;
55312;SDS011;46892;45.668;11.756;2022-12-07T05:34:43;13.27;;;9.30;;
55312;SDS011;46892;45.668;11.756;2022-12-07T05:37:09;13.60;;;9.93;;
55312;SDS011;46892;45.668;11.756;2022-12-07T05:39:35;16.73;;;11.37;;
55312;SDS011;46892;45.668;11.756;2022-12-07T05:42:02;12.53;;;9.13;;
55312;SDS011;46892;45.668;11.756;2022-12-07T05:44:38;15.07;;;10.10;;
55312;SDS011;46892;45.668;11.756;2022-12-07T05:47:13;14.47;;;10.03;;
55312;SDS011;46892;45.668;11.756;2022-12-07T05:49:39;13.13;;;9.03;;
55312;SDS011;46892;45.668;11.756;2022-12-07T05:52:05;15.17;;;9.67;;
55312;SDS011;46892;45.668;11.756;2022-12-07T05:54:32;14.33;;;10.17;;
55312;SDS011;46892;45.668;11.756;2022-12-07T05:56:57;13.67;;;9.97;;
55312;SDS011;46892;45.668;11.756;2022-12-07T05:59:23;16.50;;;10.00;;
55312;SDS011;46892;45.668;11.756;2022-12-07T06:04:20;14.60;;;9.23;;
55312;SDS011;46892;45.668;11.756;2022-12-07T06:06:46;18.53;;;9.97;;
55312;SDS011;46892;45.668;11.756;2022-12-07T06:09:12;16.17;;;9.70;;
55312;SDS011;46892;45.668;11.756;2022-12-07T06:11:40;17.50;;;9.93;;
55312;SDS011;46892;45.668;11.756;2022-12-07T06:14:24;15.37;;;10.23;;
55312;SDS011;46892;45.668;11.756;2022-12-07T06:16:50;14.50;;;9.80;;
55312;SDS011;46892;45.668;11.756;2022-12-07T06:19:16;13.77;;;9.73;;
55312;SDS011;46892;45.668;11.756;2022-12-07T06:21:42;15.23;;;9.53;;
55312;SDS011;46892;45.668;11.756;2022-12-07T06:24:09;15.17;;;9.80;;
55312;SDS011;46892;45.668;11.756;2022-12-07T06:26:37;16.00;;;10.33;;
55312;SDS011;46892;45.668;11.756;2022-12-07T06:29:03;12.93;;;8.67;;
55312;SDS011;46892;45.668;11.756;2022-12-07T06:31:29;11.87;;;7.33;;
55312;SDS011;46892;45.668;11.756;2022-12-07T06:33:58;9.23;;;5.60;;
55312;SDS011;46892;45.668;11.756;2022-12-07T06:36:24;9.60;;;5.37;;
55312;SDS011;46892;45.668;11.756;2022-12-07T06:38:50;9.27;;;4.57;;
55312;SDS011;46892;45.668;11.756;2022-12-07T06:41:16;7.40;;;4.20;;
55312;SDS011;46892;45.668;11.756;2022-12-07T06:43:41;5.43;;;3.67;;
55312;SDS011;46892;45.668;11.756;2022-12-07T06:46:07;5.73;;;3.97;;
55312;SDS011;46892;45.668;11.756;2022-12-07T06:48:33;6.93;;;3.57;;
55312;SDS011;46892;45.668;11.756;2022-12-07T06:50:58;5.77;;;3.27;;
55312;SDS011;46892;45.668;11.756;2022-12-07T06:53:24;5.63;;;3.70;;
55312;SDS011;46892;45.668;11.756;2022-12-07T06:55:50;6.23;;;3.50;;
55312;SDS011;46892;45.668;11.756;2022-12-07T06:58:16;5.43;;;3.37;;
55312;SDS011;46892;45.668;11.756;2022-12-07T07:00:42;5.60;;;3.33;;
55312;SDS011;46892;45.668;11.756;2022-12-07T07:03:09;6.50;;;3.50;;
55312;SDS011;46892;45.668;11.756;2022-12-07T07:05:34;7.50;;;4.40;;
55312;SDS011;46892;45.668;11.756;2022-12-07T07:08:01;5.93;;;3.80;;
55312;SDS011;46892;45.668;11.756;2022-12-07T07:10:27;6.87;;;4.27;;
55312;SDS011;46892;45.668;11.756;2022-12-07T07:12:53;8.53;;;5.40;;
55312;SDS011;46892;45.668;11.756;2022-12-07T07:15:19;10.33;;;5.60;;
55312;SDS011;46892;45.668;11.756;2022-12-07T07:17:44;10.00;;;5.97;;
55312;SDS011;46892;45.668;11.756;2022-12-07T07:20:10;12.60;;;7.43;;
55312;SDS011;46892;45.668;11.756;2022-12-07T07:22:36;15.00;;;9.63;;
55312;SDS011;46892;45.668;11.756;2022-12-07T07:25:02;14.47;;;8.90;;
55312;SDS011;46892;45.668;11.756;2022-12-07T07:27:28;8.90;;;5.60;;
55312;SDS011;46892;45.668;11.756;2022-12-07T07:29:53;8.07;;;5.20;;
55312;SDS011;46892;45.668;11.756;2022-12-07T07:32:19;6.07;;;3.53;;
55312;SDS011;46892;45.668;11.756;2022-12-07T07:34:46;5.93;;;3.83;;
55312;SDS011;46892;45.668;11.756;2022-12-07T07:37:12;6.60;;;2.90;;
55312;SDS011;46892;45.668;11.756;2022-12-07T07:39:38;6.03;;;3.80;;
55312;SDS011;46892;45.668;11.756;2022-12-07T07:42:04;5.00;;;3.10;;
55312;SDS011;46892;45.668;11.756;2022-12-07T07:44:30;7.03;;;3.70;;
55312;SDS011;46892;45.668;11.756;2022-12-07T07:46:56;6.03;;;3.27;;
55312;SDS011;46892;45.668;11.756;2022-12-07T07:49:21;7.00;;;3.40;;
55312;SDS011;46892;45.668;11.756;2022-12-07T07:51:47;5.23;;;3.03;;
55312;SDS011;46892;45.668;11.756;2022-12-07T07:54:13;7.33;;;3.17;;
55312;SDS011;46892;45.668;11.756;2022-12-07T07:56:39;5.87;;;2.87;;
55312;SDS011;46892;45.668;11.756;2022-12-07T07:59:04;7.67;;;3.60;;
55312;SDS011;46892;45.668;11.756;2022-12-07T08:01:30;4.60;;;2.90;;
55312;SDS011;46892;45.668;11.756;2022-12-07T08:03:55;4.63;;;2.77;;
55312;SDS011;46892;45.668;11.756;2022-12-07T08:06:21;3.93;;;2.27;;
55312;SDS011;46892;45.668;11.756;2022-12-07T08:08:47;5.70;;;3.17;;
55312;SDS011;46892;45.668;11.756;2022-12-07T08:11:12;7.33;;;4.60;;
55312;SDS011;46892;45.668;11.756;2022-12-07T08:13:38;7.33;;;5.00;;
55312;SDS011;46892;45.668;11.756;2022-12-07T08:16:05;8.67;;;5.03;;
55312;SDS011;46892;45.668;11.756;2022-12-07T08:18:37;12.37;;;6.87;;
55312;SDS011;46892;45.668;11.756;2022-12-07T08:21:04;15.18;;;7.90;;
55312;SDS011;46892;45.668;11.756;2022-12-07T08:23:31;21.97;;;10.40;;
55312;SDS011;46892;45.668;11.756;2022-12-07T08:26:04;26.80;;;11.40;;
55312;SDS011;46892;45.668;11.756;2022-12-07T08:28:31;24.63;;;11.07;;
55312;SDS011;46892;45.668;11.756;2022-12-07T08:31:04;32.07;;;13.67;;
55312;SDS011;46892;45.668;11.756;2022-12-07T08:33:36;29.73;;;13.10;;
55312;SDS011;46892;45.668;11.756;2022-12-07T08:36:03;19.77;;;10.50;;
55312;SDS011;46892;45.668;11.756;2022-12-07T08:38:30;18.50;;;8.43;;
55312;SDS011;46892;45.668;11.756;2022-12-07T08:40:57;15.80;;;7.60;;
55312;SDS011;46892;45.668;11.756;2022-12-07T08:43:23;13.23;;;7.53;;
55312;SDS011;46892;45.668;11.756;2022-12-07T08:45:50;14.57;;;8.10;;
55312;SDS011;46892;45.668;11.756;2022-12-07T08:48:25;13.37;;;8.07;;
55312;SDS011;46892;45.668;11.756;2022-12-07T08:50:51;12.23;;;7.67;;
55312;SDS011;46892;45.668;11.756;2022-12-07T08:53:17;16.23;;;7.83;;
55312;SDS011;46892;45.668;11.756;2022-12-07T08:55:43;13.93;;;8.60;;
55312;SDS011;46892;45.668;11.756;2022-12-07T08:58:10;15.67;;;9.27;;
55312;SDS011;46892;45.668;11.756;2022-12-07T09:00:36;14.43;;;8.03;;
55312;SDS011;46892;45.668;11.756;2022-12-07T09:03:02;15.30;;;9.10;;
55312;SDS011;46892;45.668;11.756;2022-12-07T09:05:28;12.53;;;8.53;;
55312;SDS011;46892;45.668;11.756;2022-12-07T09:07:56;18.87;;;8.67;;
55312;SDS011;46892;45.668;11.756;2022-12-07T09:10:26;12.63;;;8.30;;
55312;SDS011;46892;45.668;11.756;2022-12-07T09:12:51;11.10;;;7.77;;
55312;SDS011;46892;45.668;11.756;2022-12-07T09:15:17;16.13;;;8.23;;
55312;SDS011;46892;45.668;11.756;2022-12-07T09:17:43;11.70;;;7.83;;
55312;SDS011;46892;45.668;11.756;2022-12-07T09:20:09;12.90;;;8.23;;
55312;SDS011;46892;45.668;11.756;2022-12-07T09:22:35;14.70;;;8.33;;
55312;SDS011;46892;45.668;11.756;2022-12-07T09:25:01;14.07;;;8.83;;
55312;SDS011;46892;45.668;11.756;2022-12-07T09:27:28;16.50;;;10.07;;
55312;SDS011;46892;45.668;11.756;2022-12-07T09:29:53;18.23;;;11.30;;
55312;SDS011;46892;45.668;11.756;2022-12-07T09:32:19;17.07;;;10.67;;
55312;SDS011;46892;45.668;11.756;2022-12-07T09:34:45;15.43;;;10.60;;
55312;SDS011;46892;45.668;11.756;2022-12-07T09:37:11;15.10;;;10.63;;
55312;SDS011;46892;45.668;11.756;2022-12-07T09:39:40;13.33;;;10.17;;
55312;SDS011;46892;45.668;11.756;2022-12-07T09:42:06;15.20;;;9.77;;
55312;SDS011;46892;45.668;11.756;2022-12-07T09:44:33;15.90;;;9.60;;
55312;SDS011;46892;45.668;11.756;2022-12-07T09:47:00;15.57;;;10.20;;
55312;SDS011;46892;45.668;11.756;2022-12-07T09:49:30;13.50;;;9.30;;
55312;SDS011;46892;45.668;11.756;2022-12-07T09:52:01;12.32;;;7.90;;
55312;SDS011;46892;45.668;11.756;2022-12-07T09:54:48;14.02;;;7.65;;
55312;SDS011;46892;45.668;11.756;2022-12-07T09:57:15;10.87;;;7.43;;
55312;SDS011;46892;45.668;11.756;2022-12-07T09:59:42;14.00;;;8.63;;
55312;SDS011;46892;45.668;11.756;2022-12-07T10:05:15;11.80;;;7.77;;
55312;SDS011;46892;45.668;11.756;2022-12-07T10:07:44;10.90;;;7.57;;
55312;SDS011;46892;45.668;11.756;2022-12-07T10:10:14;12.37;;;8.63;;
55312;SDS011;46892;45.668;11.756;2022-12-07T10:12:54;12.33;;;8.30;;
55312;SDS011;46892;45.668;11.756;2022-12-07T10:15:22;12.30;;;8.30;;
55312;SDS011;46892;45.668;11.756;2022-12-07T10:17:49;12.60;;;8.70;;
55312;SDS011;46892;45.668;11.756;2022-12-07T10:20:26;13.43;;;8.90;;
55312;SDS011;46892;45.668;11.756;2022-12-07T10:23:00;13.17;;;8.10;;
55312;SDS011;46892;45.668;11.756;2022-12-07T10:25:34;11.53;;;7.90;;
55312;SDS011;46892;45.668;11.756;2022-12-07T10:30:33;10.43;;;7.07;;
55312;SDS011;46892;45.668;11.756;2022-12-07T10:33:37;10.00;;;7.20;;
55312;SDS011;46892;45.668;11.756;2022-12-07T10:38:47;10.87;;;6.93;;
55312;SDS011;46892;45.668;11.756;2022-12-07T10:41:52;10.73;;;6.80;;
55312;SDS011;46892;45.668;11.756;2022-12-07T10:44:26;9.37;;;6.23;;
55312;SDS011;46892;45.668;11.756;2022-12-07T11:00:16;3.70;;;2.40;;
55312;SDS011;46892;45.668;11.756;2022-12-07T11:14:01;11.02;;;6.53;;
55312;SDS011;46892;45.668;11.756;2022-12-07T11:16:13;11.93;;;6.87;;
55312;SDS011;46892;45.668;11.756;2022-12-07T11:21:55;9.20;;;6.20;;
55312;SDS011;46892;45.668;11.756;2022-12-07T11:30:23;9.37;;;6.07;;
55312;SDS011;46892;45.668;11.756;2022-12-07T11:38:16;8.70;;;5.57;;
55312;SDS011;46892;45.668;11.756;2022-12-07T11:40:46;9.20;;;5.73;;
55312;SDS011;46892;45.668;11.756;2022-12-07T11:43:21;7.13;;;4.87;;
55312;SDS011;46892;45.668;11.756;2022-12-07T11:46:14;7.87;;;5.30;;
55312;SDS011;46892;45.668;11.756;2022-12-07T11:48:41;9.43;;;5.63;;
55312;SDS011;46892;45.668;11.756;2022-12-07T11:51:35;7.70;;;4.83;;
55312;SDS011;46892;45.668;11.756;2022-12-07T11:54:05;7.20;;;4.63;;
55312;SDS011;46892;45.668;11.756;2022-12-07T11:56:39;7.30;;;4.60;;
55312;SDS011;46892;45.668;11.756;2022-12-07T11:59:17;8.27;;;5.00;;
55312;SDS011;46892;45.668;11.756;2022-12-07T12:04:18;7.37;;;5.03;;
55312;SDS011;46892;45.668;11.756;2022-12-07T12:06:52;6.57;;;4.93;;
55312;SDS011;46892;45.668;11.756;2022-12-07T12:09:19;7.77;;;4.83;;
55312;SDS011;46892;45.668;11.756;2022-12-07T12:22:44;7.37;;;4.37;;
55312;SDS011;46892;45.668;11.756;2022-12-07T12:25:23;7.20;;;5.07;;
55312;SDS011;46892;45.668;11.756;2022-12-07T12:27:55;7.07;;;4.37;;
55312;SDS011;46892;45.668;11.756;2022-12-07T12:30:39;6.93;;;4.37;;
55312;SDS011;46892;45.668;11.756;2022-12-07T12:38:51;7.28;;;4.97;;
55312;SDS011;46892;45.668;11.756;2022-12-07T12:46:52;7.03;;;5.20;;
55312;SDS011;46892;45.668;11.756;2022-12-07T12:54:19;7.13;;;4.38;;
55312;SDS011;46892;45.668;11.756;2022-12-07T12:56:54;7.27;;;4.80;;
55312;SDS011;46892;45.668;11.756;2022-12-07T12:59:31;10.73;;;4.93;;
55312;SDS011;46892;45.668;11.756;2022-12-07T13:04:55;6.80;;;4.63;;
55312;SDS011;46892;45.668;11.756;2022-12-07T13:17:58;7.17;;;4.10;;
55312;SDS011;46892;45.668;11.756;2022-12-07T13:20:45;5.70;;;4.03;;
55312;SDS011;46892;45.668;11.756;2022-12-07T13:28:52;7.37;;;4.50;;
55312;SDS011;46892;45.668;11.756;2022-12-07T13:34:26;8.87;;;5.63;;
55312;SDS011;46892;45.668;11.756;2022-12-07T13:37:02;9.30;;;4.90;;
55312;SDS011;46892;45.668;11.756;2022-12-07T13:39:52;6.20;;;4.53;;
55312;SDS011;46892;45.668;11.756;2022-12-07T13:42:29;7.27;;;4.23;;
55312;SDS011;46892;45.668;11.756;2022-12-07T13:44:57;5.87;;;4.10;;
55312;SDS011;46892;45.668;11.756;2022-12-07T13:49:52;6.00;;;4.23;;
55312;SDS011;46892;45.668;11.756;2022-12-07T13:52:26;6.30;;;4.67;;
55312;SDS011;46892;45.668;11.756;2022-12-07T13:54:59;7.87;;;4.27;;
55312;SDS011;46892;45.668;11.756;2022-12-07T13:57:29;7.33;;;4.80;;
55312;SDS011;46892;45.668;11.756;2022-12-07T13:59:56;7.33;;;5.10;;
55312;SDS011;46892;45.668;11.756;2022-12-07T14:02:27;7.87;;;5.03;;
55312;SDS011;46892;45.668;11.756;2022-12-07T14:05:14;7.40;;;5.33;;
55312;SDS011;46892;45.668;11.756;2022-12-07T14:07:55;9.10;;;5.97;;
55312;SDS011;46892;45.668;11.756;2022-12-07T14:10:27;8.70;;;5.70;;
55312;SDS011;46892;45.668;11.756;2022-12-07T14:12:52;9.18;;;5.57;;
55312;SDS011;46892;45.668;11.756;2022-12-07T14:15:24;8.10;;;5.50;;
55312;SDS011;46892;45.668;11.756;2022-12-07T14:17:57;7.53;;;5.20;;
55312;SDS011;46892;45.668;11.756;2022-12-07T14:22:54;6.87;;;4.90;;
55312;SDS011;46892;45.668;11.756;2022-12-07T14:25:23;7.13;;;4.80;;
55312;SDS011;46892;45.668;11.756;2022-12-07T14:27:57;7.87;;;5.17;;
55312;SDS011;46892;45.668;11.756;2022-12-07T14:30:30;6.17;;;4.70;;
55312;SDS011;46892;45.668;11.756;2022-12-07T14:35:25;6.93;;;4.83;;
55312;SDS011;46892;45.668;11.756;2022-12-07T14:37:51;6.70;;;4.97;;
55312;SDS011;46892;45.668;11.756;2022-12-07T14:40:21;8.07;;;5.30;;
55312;SDS011;46892;45.668;11.756;2022-12-07T14:42:50;7.20;;;5.17;;
55312;SDS011;46892;45.668;11.756;2022-12-07T14:45:19;7.85;;;4.97;;
55312;SDS011;46892;45.668;11.756;2022-12-07T14:47:46;7.57;;;4.97;;
55312;SDS011;46892;45.668;11.756;2022-12-07T14:50:13;6.77;;;5.37;;
55312;SDS011;46892;45.668;11.756;2022-12-07T14:52:42;9.27;;;5.53;;
55312;SDS011;46892;45.668;11.756;2022-12-07T14:55:13;10.43;;;7.30;;
55312;SDS011;46892;45.668;11.756;2022-12-07T14:57:45;12.27;;;7.77;;
55312;SDS011;46892;45.668;11.756;2022-12-07T15:00:14;11.43;;;7.90;;
55312;SDS011;46892;45.668;11.756;2022-12-07T15:02:42;12.13;;;8.83;;
55312;SDS011;46892;45.668;11.756;2022-12-07T15:05:09;13.53;;;9.17;;
55312;SDS011;46892;45.668;11.756;2022-12-07T15:07:35;12.80;;;9.47;;
55312;SDS011;46892;45.668;11.756;2022-12-07T15:10:01;12.00;;;9.47;;
55312;SDS011;46892;45.668;11.756;2022-12-07T15:12:26;14.53;;;10.07;;
55312;SDS011;46892;45.668;11.756;2022-12-07T15:14:52;14.40;;;10.70;;
55312;SDS011;46892;45.668;11.756;2022-12-07T15:17:18;12.87;;;9.73;;
55312;SDS011;46892;45.668;11.756;2022-12-07T15:19:44;12.73;;;9.10;;
55312;SDS011;46892;45.668;11.756;2022-12-07T15:22:10;13.77;;;9.93;;
55312;SDS011;46892;45.668;11.756;2022-12-07T15:24:36;18.37;;;10.07;;
55312;SDS011;46892;45.668;11.756;2022-12-07T15:27:02;19.37;;;14.33;;
55312;SDS011;46892;45.668;11.756;2022-12-07T15:29:28;18.50;;;12.07;;
55312;SDS011;46892;45.668;11.756;2022-12-07T15:31:54;17.10;;;13.10;;
55312;SDS011;46892;45.668;11.756;2022-12-07T15:34:20;20.40;;;11.27;;
55312;SDS011;46892;45.668;11.756;2022-12-07T15:36:46;18.70;;;11.33;;
55312;SDS011;46892;45.668;11.756;2022-12-07T15:39:11;15.30;;;10.53;;
55312;SDS011;46892;45.668;11.756;2022-12-07T15:41:37;17.43;;;11.00;;
55312;SDS011;46892;45.668;11.756;2022-12-07T15:44:03;14.17;;;10.27;;
55312;SDS011;46892;45.668;11.756;2022-12-07T15:46:48;13.67;;;8.60;;
55312;SDS011;46892;45.668;11.756;2022-12-07T15:49:14;13.60;;;9.07;;
55312;SDS011;46892;45.668;11.756;2022-12-07T15:51:41;15.97;;;9.63;;
55312;SDS011;46892;45.668;11.756;2022-12-07T15:54:18;12.50;;;8.90;;
55312;SDS011;46892;45.668;11.756;2022-12-07T15:56:51;13.97;;;9.93;;
55312;SDS011;46892;45.668;11.756;2022-12-07T15:59:17;11.37;;;7.90;;
55312;SDS011;46892;45.668;11.756;2022-12-07T16:01:43;9.90;;;6.93;;
55312;SDS011;46892;45.668;11.756;2022-12-07T16:04:09;10.50;;;6.70;;
55312;SDS011;46892;45.668;11.756;2022-12-07T16:06:35;11.33;;;6.93;;
55312;SDS011;46892;45.668;11.756;2022-12-07T16:09:01;10.97;;;6.17;;
55312;SDS011;46892;45.668;11.756;2022-12-07T16:11:27;9.73;;;5.60;;
55312;SDS011;46892;45.668;11.756;2022-12-07T16:13:52;10.90;;;6.10;;
55312;SDS011;46892;45.668;11.756;2022-12-07T16:16:18;9.27;;;5.67;;
55312;SDS011;46892;45.668;11.756;2022-12-07T16:18:47;11.80;;;6.23;;
55312;SDS011;46892;45.668;11.756;2022-12-07T16:21:13;20.40;;;9.93;;
55312;SDS011;46892;45.668;11.756;2022-12-07T16:23:40;14.13;;;9.83;;
55312;SDS011;46892;45.668;11.756;2022-12-07T16:26:11;16.23;;;12.97;;
55312;SDS011;46892;45.668;11.756;2022-12-07T16:28:41;14.07;;;8.63;;
55312;SDS011;46892;45.668;11.756;2022-12-07T16:31:08;9.93;;;6.83;;
55312;SDS011;46892;45.668;11.756;2022-12-07T16:33:37;9.57;;;6.07;;
55312;SDS011;46892;45.668;11.756;2022-12-07T16:36:05;10.83;;;5.87;;
55312;SDS011;46892;45.668;11.756;2022-12-07T16:38:31;12.10;;;7.03;;
55312;SDS011;46892;45.668;11.756;2022-12-07T16:40:58;14.53;;;9.20;;
55312;SDS011;46892;45.668;11.756;2022-12-07T16:43:23;13.77;;;9.23;;
55312;SDS011;46892;45.668;11.756;2022-12-07T16:45:49;14.27;;;9.30;;
55312;SDS011;46892;45.668;11.756;2022-12-07T16:48:15;10.80;;;6.90;;
55312;SDS011;46892;45.668;11.756;2022-12-07T16:50:41;16.40;;;8.13;;
55312;SDS011;46892;45.668;11.756;2022-12-07T16:53:09;13.17;;;7.90;;
55312;SDS011;46892;45.668;11.756;2022-12-07T16:55:36;30.83;;;8.03;;